Time;durP1;ratioP1;P1;durP2;ratioP2;P2;SDS_P1;SDS_P2;PMS_P1;PMS_P2;Temp;Humidity;BMP_temperature;BMP_pressure;BME280_temperature;BME280_humidity;BME280_pressure;Samples;Min_cycle;Max_cycle;Signal;HPM_P1;HPM_P2
2022/08/05 00:01:53;;;;;;;2.67;1.83;;;;;;;24.74;44.68;98328.53;5035534;28;20200;-57
2022/08/05 00:04:20;;;;;;;2.10;1.90;;;;;;;24.72;44.75;98330.66;5033991;28;20227;-57
2022/08/05 00:06:47;;;;;;;4.10;1.85;;;;;;;24.75;44.71;98322.13;5034897;28;20638;-56
2022/08/05 00:09:14;;;;;;;3.37;1.63;;;;;;;24.75;44.40;98321.31;5034678;28;20223;-55
2022/08/05 00:11:41;;;;;;;3.55;1.85;;;;;;;24.73;44.89;98312.75;5035752;28;20201;-57
2022/08/05 00:14:09;;;;;;;4.40;1.63;;;;;;;24.70;45.05;98313.22;5033327;28;20198;-57
2022/08/05 00:16:36;;;;;;;4.57;1.83;;;;;;;24.66;44.97;98320.94;5033377;28;20196;-57
2022/08/05 00:19:03;;;;;;;2.60;1.98;;;;;;;24.64;45.51;98319.56;5035006;28;20568;-57
2022/08/05 00:21:30;;;;;;;3.03;1.90;;;;;;;24.57;45.74;98320.56;5031589;28;20647;-56
2022/08/05 00:23:59;;;;;;;1.85;1.67;;;;;;;24.54;45.84;98337.06;5034316;28;20209;-57
2022/08/05 00:26:26;;;;;;;5.13;1.90;;;;;;;24.47;46.27;98347.94;5032476;28;20293;-57
2022/08/05 00:28:53;;;;;;;4.13;1.65;;;;;;;24.39;46.20;98360.91;5029791;28;20245;-56
2022/08/05 00:31:20;;;;;;;5.33;1.80;;;;;;;24.30;46.50;98365.88;5031344;28;20197;-57
2022/08/05 00:33:47;;;;;;;2.72;2.00;;;;;;;24.24;46.84;98364.19;5031947;28;20272;-57
2022/08/05 00:36:14;;;;;;;3.88;2.05;;;;;;;24.43;45.92;98359.34;5036453;28;20704;-57
2022/08/05 00:38:41;;;;;;;5.70;2.13;;;;;;;24.37;45.79;98347.03;5033647;28;20299;-57
2022/08/05 00:41:07;;;;;;;2.88;1.90;;;;;;;24.25;46.66;98345.28;5034663;28;20214;-57
2022/08/05 00:43:35;;;;;;;4.33;2.00;;;;;;;24.32;46.35;98355.75;5033758;28;20199;-56
2022/08/05 00:46:02;;;;;;;2.17;1.80;;;;;;;24.23;47.02;98354.56;5032553;28;20196;-57
2022/08/05 00:48:30;;;;;;;2.77;2.10;;;;;;;24.13;46.97;98360.59;5035331;28;20233;-56
2022/08/05 00:50:57;;;;;;;5.30;2.17;;;;;;;24.05;47.98;98351.13;5034473;28;20190;-56
2022/08/05 00:53:24;;;;;;;3.65;1.90;;;;;;;23.94;47.94;98350.19;5028167;28;20195;-56
2022/08/05 00:55:51;;;;;;;6.00;2.00;;;;;;;23.91;48.34;98345.34;5028763;28;20200;-57
2022/08/05 00:58:18;;;;;;;2.23;2.00;;;;;;;23.86;48.13;98350.59;5031931;28;20219;-57
2022/08/05 01:00:45;;;;;;;4.10;1.80;;;;;;;23.84;48.78;98366.03;5016433;28;20206;-56
2022/08/05 01:03:12;;;;;;;4.20;2.10;;;;;;;23.76;48.73;98363.75;5030575;28;20826;-57
2022/08/05 01:05:41;;;;;;;6.20;2.00;;;;;;;23.69;49.01;98358.63;5033917;28;20201;-56
2022/08/05 01:08:08;;;;;;;3.90;2.10;;;;;;;23.64;49.16;98359.31;5035288;28;20206;-57
2022/08/05 01:10:40;;;;;;;3.27;1.70;;;;;;;23.51;49.35;98349.00;5031250;28;20273;-57
2022/08/05 01:13:14;;;;;;;6.63;2.47;;;;;;;23.57;50.11;98348.03;5028702;28;20179;-56
2022/08/05 01:15:50;;;;;;;5.30;2.23;;;;;;;23.52;49.77;98358.59;5034067;28;20209;-56
2022/08/05 01:18:23;;;;;;;3.67;2.20;;;;;;;23.44;50.30;98360.63;5032863;28;20221;-55
2022/08/05 01:21:04;;;;;;;4.83;2.00;;;;;;;23.44;50.73;98349.16;5031059;28;20621;-56
2022/08/05 01:23:43;;;;;;;3.00;2.00;;;;;;;23.34;50.78;98339.13;5028397;28;20278;-56
2022/08/05 01:26:29;;;;;;;7.90;2.20;;;;;;;23.33;51.29;98342.06;5033862;28;20190;-57
2022/08/05 01:29:01;;;;;;;3.10;2.00;;;;;;;23.28;51.23;98342.78;5024224;28;20236;-56
2022/08/05 01:31:32;;;;;;;8.30;2.30;;;;;;;23.25;50.93;98335.28;5032672;28;20207;-57
2022/08/05 01:34:04;;;;;;;5.43;2.00;;;;;;;23.29;51.21;98337.22;5030440;28;20200;-56
2022/08/05 01:36:36;;;;;;;3.80;1.90;;;;;;;23.25;51.21;98336.09;5032750;28;20226;-58
2022/08/05 01:39:03;;;;;;;3.60;1.90;;;;;;;23.26;51.57;98334.25;5028258;28;20212;-57
2022/08/05 01:41:34;;;;;;;2.57;2.30;;;;;;;23.31;51.67;98337.00;5029107;28;20184;-57
2022/08/05 01:44:05;;;;;;;9.90;2.43;;;;;;;23.33;51.47;98348.19;5035116;28;20640;-56
2022/08/05 01:46:35;;;;;;;3.23;2.57;;;;;;;23.40;51.54;98348.03;5029727;28;20637;-57
2022/08/05 01:49:03;;;;;;;6.37;2.17;;;;;;;23.44;51.21;98341.97;5033690;28;20224;-57
2022/08/05 01:51:34;;;;;;;2.20;1.97;;;;;;;23.58;50.65;98333.66;5033672;28;20197;-56
2022/08/05 01:54:02;;;;;;;5.00;2.30;;;;;;;23.76;50.23;98345.09;5034364;28;20591;-57
2022/08/05 01:56:32;;;;;;;7.80;2.30;;;;;;;23.86;49.82;98343.38;5031046;28;20218;-57
2022/08/05 01:59:00;;;;;;;8.93;2.80;;;;;;;24.13;50.27;98341.94;5027606;28;20259;-57
2022/08/05 02:01:31;;;;;;;5.83;2.07;;;;;;;24.27;49.36;98327.19;5035386;28;20200;-56
2022/08/05 02:04:00;;;;;;;7.00;2.77;;;;;;;24.57;48.67;98319.78;5031061;28;20865;-57
2022/08/05 02:06:27;;;;;;;4.00;2.50;;;;;;;24.69;48.23;98327.63;5030236;28;20191;-56
2022/08/05 02:08:54;;;;;;;5.70;2.97;;;;;;;24.81;48.26;98332.88;5030536;28;20211;-57
2022/08/05 02:11:22;;;;;;;4.60;2.13;;;;;;;24.78;48.17;98358.19;5024807;28;20206;-57
2022/08/05 02:13:54;;;;;;;3.60;2.28;;;;;;;24.75;48.25;98370.19;5028057;28;20216;-57
2022/08/05 02:16:28;;;;;;;6.07;2.30;;;;;;;24.81;48.25;98384.38;5027470;28;20210;-57
2022/08/05 02:18:59;;;;;;;4.63;2.37;;;;;;;24.80;48.43;98395.31;5029155;28;20216;-56
2022/08/05 02:21:30;;;;;;;3.27;2.40;;;;;;;24.74;48.67;98391.75;5029391;28;20205;-57
2022/08/05 02:24:11;;;;;;;4.65;2.50;;;;;;;24.65;49.35;98401.22;5030418;28;20608;-57
2022/08/05 02:26:43;;;;;;;4.00;2.80;;;;;;;24.56;49.47;98401.66;5033003;28;20630;-56
2022/08/05 02:29:13;;;;;;;5.50;2.55;;;;;;;24.54;50.12;98394.97;5028379;28;20773;-57
2022/08/05 02:31:41;;;;;;;5.93;2.27;;;;;;;24.46;50.17;98404.19;5027941;28;20199;-57
2022/08/05 02:34:11;;;;;;;10.87;2.50;;;;;;;24.42;50.21;98398.56;5032351;28;20187;-57
2022/08/05 02:36:43;;;;;;;9.18;2.92;;;;;;;24.34;50.55;98380.31;5029558;28;20213;-57
2022/08/05 02:39:11;;;;;;;6.00;2.60;;;;;;;24.30;51.00;98366.69;5028876;28;20230;-57
2022/08/05 02:41:40;;;;;;;7.00;2.80;;;;;;;24.42;50.71;98349.72;5028904;28;20198;-57
2022/08/05 02:44:08;;;;;;;6.70;2.60;;;;;;;24.69;49.86;98352.47;5030786;28;20215;-57
2022/08/05 02:46:56;;;;;;;8.23;2.50;;;;;;;24.80;49.41;98352.59;5029436;28;20212;-57
2022/08/05 02:49:27;;;;;;;5.25;3.15;;;;;;;24.90;49.10;98350.03;5028781;28;20219;-57
2022/08/05 02:51:55;;;;;;;11.13;2.55;;;;;;;24.89;49.25;98346.56;5035823;28;20259;-57
2022/08/05 02:54:23;;;;;;;9.40;2.67;;;;;;;24.90;49.03;98331.34;5029928;28;20199;-56
2022/08/05 02:56:51;;;;;;;6.00;2.40;;;;;;;24.93;49.06;98311.34;5031427;28;20222;-57
2022/08/05 02:59:20;;;;;;;4.55;2.92;;;;;;;24.90;49.19;98302.78;5028656;28;20238;-56
2022/08/05 03:01:50;;;;;;;6.47;2.58;;;;;;;24.93;48.78;98284.66;5032088;28;20206;-56
2022/08/05 03:04:18;;;;;;;7.23;2.73;;;;;;;25.08;48.26;98283.97;5032709;28;20186;-56
2022/08/05 03:06:46;;;;;;;5.45;2.75;;;;;;;25.17;48.12;98280.59;5011598;28;20224;-57
2022/08/05 03:09:14;;;;;;;7.60;2.60;;;;;;;25.17;48.39;98299.28;5031689;28;20216;-57
2022/08/05 03:11:43;;;;;;;8.90;2.85;;;;;;;25.18;48.28;98303.56;5029056;28;20196;-57
2022/08/05 03:14:11;;;;;;;6.70;2.60;;;;;;;25.15;48.35;98304.06;5029094;28;20272;-57
2022/08/05 03:16:37;;;;;;;2.93;2.50;;;;;;;25.09;48.66;98305.09;5026942;28;20209;-57
2022/08/05 03:19:04;;;;;;;6.30;2.67;;;;;;;25.07;49.23;98301.88;5030856;28;20479;-56
2022/08/05 03:21:31;;;;;;;5.03;2.30;;;;;;;25.00;48.89;98312.75;5032557;28;20203;-55
2022/08/05 03:24:00;;;;;;;6.33;2.37;;;;;;;24.93;49.16;98320.16;5031932;28;20208;-57
2022/08/05 03:26:28;;;;;;;5.13;2.50;;;;;;;24.89;49.73;98325.19;5025910;28;20193;-57
2022/08/05 03:28:55;;;;;;;4.47;2.53;;;;;;;24.79;49.64;98338.44;5014092;28;20641;-56
2022/08/05 03:31:22;;;;;;;4.18;2.30;;;;;;;24.67;50.05;98346.56;5023846;28;20214;-57
2022/08/05 03:33:49;;;;;;;4.60;2.50;;;;;;;24.60;50.33;98372.63;5032861;28;20200;-57
2022/08/05 03:36:16;;;;;;;8.93;2.80;;;;;;;24.51;50.54;98374.13;5028404;28;20203;-57
2022/08/05 03:38:43;;;;;;;4.97;2.45;;;;;;;24.42;50.66;98389.75;5026394;28;20749;-57
2022/08/05 03:41:11;;;;;;;5.33;2.70;;;;;;;24.33;51.09;98400.06;5033201;28;20199;-57
2022/08/05 03:43:37;;;;;;;3.13;2.20;;;;;;;24.24;51.25;98404.19;5031219;28;20357;-56
2022/08/05 03:46:05;;;;;;;3.80;2.58;;;;;;;24.23;51.67;98405.25;5034262;28;20594;-57
2022/08/05 03:48:32;;;;;;;6.77;2.40;;;;;;;24.17;51.79;98401.72;5030397;28;20257;-57
2022/08/05 03:51:07;;;;;;;5.67;2.93;;;;;;;24.05;51.78;98401.00;5010765;28;20210;-57
2022/08/05 03:53:38;;;;;;;4.43;2.40;;;;;;;23.94;52.36;98392.81;5032619;28;20208;-57
2022/08/05 03:56:10;;;;;;;10.25;2.80;;;;;;;23.87;52.34;98389.53;5014795;28;20733;-56
2022/08/05 03:58:40;;;;;;;4.90;2.67;;;;;;;23.97;52.31;98400.34;5032537;28;20222;-57
2022/08/05 04:01:09;;;;;;;7.27;2.80;;;;;;;23.98;51.77;98409.13;5034050;28;20934;-56
2022/08/05 04:03:39;;;;;;;3.77;2.70;;;;;;;23.98;51.82;98423.28;5031996;28;20189;-56
2022/08/05 04:06:07;;;;;;;4.57;2.70;;;;;;;23.99;52.14;98442.75;5033996;28;20203;-57
2022/08/05 04:08:35;;;;;;;6.00;3.30;;;;;;;24.03;52.52;98459.88;5031000;28;20208;-57
2022/08/05 04:11:02;;;;;;;3.70;2.37;;;;;;;23.99;52.79;98469.41;5019065;28;20200;-55
2022/08/05 04:13:29;;;;;;;4.43;2.85;;;;;;;23.98;52.69;98489.09;5032891;28;20774;-56
2022/08/05 04:15:58;;;;;;;6.93;2.50;;;;;;;24.02;52.83;98520.41;5034307;28;20210;-56
2022/08/05 04:18:24;;;;;;;4.80;2.93;;;;;;;24.12;52.12;98534.97;5029294;28;20222;-56
2022/08/05 04:20:55;;;;;;;3.08;2.58;;;;;;;24.11;52.28;98547.47;5034537;28;20229;-54
2022/08/05 04:23:24;;;;;;;6.18;2.80;;;;;;;24.07;52.64;98564.22;5033416;28;20196;-56
2022/08/05 04:25:51;;;;;;;3.00;2.63;;;;;;;24.06;53.04;98567.91;5036615;28;20194;-55
2022/08/05 04:28:18;;;;;;;5.40;2.97;;;;;;;24.07;53.13;98589.00;5030212;28;20806;-56
2022/08/05 04:30:45;;;;;;;4.80;3.03;;;;;;;24.17;53.71;98639.03;5033676;28;20200;-55
2022/08/05 04:33:14;;;;;;;6.23;3.17;;;;;;;24.17;53.91;98658.50;5028757;28;20202;-55
2022/08/05 04:35:41;;;;;;;6.27;3.60;;;;;;;24.15;54.32;98671.28;5034420;28;20211;-55
2022/08/05 04:38:08;;;;;;;8.07;3.30;;;;;;;24.10;54.51;98671.16;5014491;28;20220;-55
2022/08/05 04:40:35;;;;;;;6.13;3.50;;;;;;;24.07;55.12;98679.66;5032606;28;20195;-56
2022/08/05 04:43:02;;;;;;;6.97;3.57;;;;;;;24.05;55.12;98681.75;5032591;28;20275;-56
2022/08/05 04:45:29;;;;;;;6.77;3.43;;;;;;;24.04;55.27;98669.47;5030407;28;20201;-56
2022/08/05 04:48:03;;;;;;;6.37;3.20;;;;;;;24.05;55.17;98667.63;5033159;28;20212;-56
2022/08/05 04:50:31;;;;;;;6.72;3.22;;;;;;;24.00;55.67;98671.81;5032734;28;20203;-56
2022/08/05 04:53:01;;;;;;;4.77;3.30;;;;;;;24.01;55.93;98664.59;5031911;28;20191;-56
2022/08/05 04:55:28;;;;;;;7.13;3.00;;;;;;;24.07;55.51;98660.19;5035042;28;20201;-56
2022/08/05 04:57:54;;;;;;;3.57;3.17;;;;;;;24.16;55.59;98658.75;5031759;28;20222;-56
2022/08/05 05:00:21;;;;;;;4.80;2.97;;;;;;;24.26;55.36;98656.28;5030482;28;20207;-56
2022/08/05 05:02:48;;;;;;;4.97;2.73;;;;;;;24.39;55.09;98670.34;5035870;28;20195;-56
2022/08/05 05:05:15;;;;;;;4.33;2.67;;;;;;;24.50;54.37;98682.81;5031018;28;20193;-56
2022/08/05 05:07:43;;;;;;;5.53;2.70;;;;;;;24.57;53.60;98683.47;5036476;28;20278;-56
2022/08/05 05:10:09;;;;;;;4.25;2.95;;;;;;;24.58;53.30;98668.28;5028070;28;20188;-56
2022/08/05 05:12:36;;;;;;;8.63;3.17;;;;;;;24.50;54.05;98661.47;5032955;28;20197;-56
2022/08/05 05:15:04;;;;;;;5.65;2.67;;;;;;;24.47;54.20;98659.28;5031919;28;20197;-56
2022/08/05 05:17:37;;;;;;;8.60;3.03;;;;;;;24.35;58.11;98655.88;5029110;28;20884;-57
2022/08/05 05:20:06;;;;;;;11.52;3.70;;;;;;;24.17;62.21;98668.38;5034278;28;20233;-56
2022/08/05 05:22:33;;;;;;;8.88;3.30;;;;;;;23.96;65.91;98678.63;5028109;28;20435;-56
2022/08/05 05:25:01;;;;;;;7.25;3.92;;;;;;;23.68;69.36;98671.41;5029571;28;21826;-56
2022/08/05 05:27:29;;;;;;;7.13;3.73;;;;;;;23.39;73.03;98666.81;5033629;28;20624;-56
2022/08/05 05:29:56;;;;;;;6.60;3.13;;;;;;;23.07;74.01;98669.03;5030551;28;20233;-56
2022/08/05 05:32:23;;;;;;;7.63;3.40;;;;;;;22.90;75.32;98656.41;5028859;28;20203;-56
2022/08/05 05:34:50;;;;;;;5.53;3.20;;;;;;;22.79;77.30;98660.69;5029933;28;21498;-57
2022/08/05 05:37:17;;;;;;;5.00;3.20;;;;;;;22.59;77.85;98663.66;5013313;28;20226;-57
2022/08/05 05:39:44;;;;;;;4.33;3.23;;;;;;;22.35;79.52;98662.75;5028007;28;20296;-57
2022/08/05 05:42:12;;;;;;;8.10;3.40;;;;;;;22.17;81.88;98637.06;5029851;28;20222;-56
2022/08/05 05:44:38;;;;;;;4.33;3.10;;;;;;;22.17;80.05;98635.22;5033840;28;20200;-56
2022/08/05 05:47:05;;;;;;;5.73;3.00;;;;;;;22.18;81.00;98620.88;5029141;28;20251;-56
2022/08/05 05:49:32;;;;;;;6.10;3.27;;;;;;;22.17;80.68;98637.88;5018449;28;21757;-56
2022/08/05 05:51:59;;;;;;;7.70;3.10;;;;;;;22.17;81.39;98651.16;5032129;28;20275;-56
2022/08/05 05:54:26;;;;;;;5.87;3.47;;;;;;;22.24;82.11;98651.88;5029063;28;20253;-57
2022/08/05 05:56:52;;;;;;;4.17;3.63;;;;;;;22.21;82.66;98649.69;5029450;28;20216;-57
2022/08/05 05:59:20;;;;;;;4.17;3.40;;;;;;;22.18;81.79;98646.66;5030608;28;20215;-56
2022/08/05 06:01:47;;;;;;;5.83;3.10;;;;;;;21.86;82.63;98642.38;5032692;28;20209;-56
2022/08/05 06:04:14;;;;;;;3.70;3.03;;;;;;;22.03;83.22;98647.06;5032335;28;20198;-57
2022/08/05 06:06:42;;;;;;;4.27;3.50;;;;;;;22.09;83.06;98640.84;5030069;28;20194;-56
2022/08/05 06:09:09;;;;;;;9.33;3.60;;;;;;;22.18;82.53;98650.13;5035135;28;20215;-57
2022/08/05 06:11:35;;;;;;;4.93;3.67;;;;;;;22.08;81.49;98647.19;5029614;28;20207;-57
2022/08/05 06:14:02;;;;;;;4.03;2.93;;;;;;;22.12;81.91;98651.84;5031280;28;20582;-56
2022/08/05 06:16:30;;;;;;;3.23;2.93;;;;;;;22.24;79.64;98653.72;5032517;28;20402;-56
2022/08/05 06:18:57;;;;;;;3.53;2.90;;;;;;;22.20;78.40;98658.69;5029715;28;20220;-56
2022/08/05 06:21:24;;;;;;;3.53;2.83;;;;;;;22.18;78.23;98665.25;5031376;28;20206;-57
2022/08/05 06:23:51;;;;;;;3.10;2.80;;;;;;;22.27;79.07;98664.69;5029474;28;20253;-56
2022/08/05 06:26:18;;;;;;;3.07;2.77;;;;;;;22.17;80.38;98664.47;5027821;28;20199;-56
2022/08/05 06:28:45;;;;;;;3.13;2.83;;;;;;;22.19;80.11;98680.16;5028451;28;20212;-56
2022/08/05 06:31:11;;;;;;;4.40;2.90;;;;;;;22.10;78.83;98680.47;5031039;28;20203;-56
2022/08/05 06:33:40;;;;;;;3.50;2.90;;;;;;;22.30;78.80;98681.25;5028221;28;20206;-56
2022/08/05 06:36:07;;;;;;;3.53;2.83;;;;;;;22.33;78.76;98673.63;5026903;28;20261;-57
2022/08/05 06:38:34;;;;;;;2.40;2.20;;;;;;;22.50;78.14;98676.47;5029409;28;20223;-57
2022/08/05 06:41:00;;;;;;;2.57;2.37;;;;;;;22.71;77.67;98676.97;5033647;28;20194;-57
2022/08/05 06:43:27;;;;;;;4.97;2.83;;;;;;;22.85;77.31;98673.06;5027677;28;20288;-57
2022/08/05 06:45:54;;;;;;;6.63;2.80;;;;;;;22.99;76.55;98673.66;5031986;28;20622;-54
2022/08/05 06:48:21;;;;;;;5.40;2.57;;;;;;;23.18;76.56;98686.84;5031191;28;20317;-56
2022/08/05 06:50:48;;;;;;;5.40;2.50;;;;;;;23.26;76.01;98699.06;5029231;28;20261;-58
2022/08/05 06:53:15;;;;;;;3.03;2.60;;;;;;;23.22;74.82;98701.31;5031285;28;20215;-57
2022/08/05 06:55:42;;;;;;;3.07;2.30;;;;;;;23.31;73.03;98701.81;5029714;28;20752;-57
2022/08/05 06:58:09;;;;;;;3.30;2.60;;;;;;;23.48;71.33;98714.41;5032542;28;20220;-57
2022/08/05 07:00:35;;;;;;;4.80;2.40;;;;;;;23.67;74.50;98715.09;5031373;28;20195;-57
2022/08/05 07:03:02;;;;;;;3.00;2.10;;;;;;;23.71;71.82;98721.59;5031819;28;20199;-57
2022/08/05 07:05:29;;;;;;;3.17;2.20;;;;;;;24.03;71.08;98722.00;5029554;28;20219;-57
2022/08/05 07:07:57;;;;;;;3.13;2.40;;;;;;;24.25;70.38;98733.84;5029662;28;20203;-56
2022/08/05 07:10:24;;;;;;;2.50;2.20;;;;;;;24.40;68.01;98742.13;5031446;28;20888;-57
2022/08/05 07:18:21;;;;;;;2.10;1.90;;;;;;;24.87;65.22;98733.09;5030203;28;20722;-57
2022/08/05 07:20:48;;;;;;;3.83;2.50;;;;;;;25.15;65.98;98726.06;5031536;28;20213;-58
2022/08/05 07:23:16;;;;;;;3.60;2.27;;;;;;;25.51;64.34;98728.44;5030039;28;20424;-57
2022/08/05 07:25:43;;;;;;;2.60;2.13;;;;;;;25.78;61.82;98728.53;5030547;28;20298;-57
2022/08/05 07:28:09;;;;;;;4.70;2.03;;;;;;;26.18;59.81;98723.91;5028989;28;20704;-56
2022/08/05 07:30:37;;;;;;;2.38;2.13;;;;;;;26.53;58.94;98722.66;5034736;28;20205;-57
2022/08/05 07:33:06;;;;;;;1.95;1.50;;;;;;;26.92;56.01;98724.34;5029731;28;20239;-58
2022/08/05 07:35:33;;;;;;;3.05;1.98;;;;;;;27.20;53.77;98725.09;5009731;28;20257;-58
2022/08/05 07:37:59;;;;;;;2.25;1.95;;;;;;;27.34;52.01;98721.97;5031445;28;20231;-57
2022/08/05 07:40:28;;;;;;;2.03;1.83;;;;;;;27.48;48.83;98717.78;5028301;28;20194;-58
2022/08/05 07:42:54;;;;;;;3.63;1.90;;;;;;;27.62;47.05;98736.06;5032351;28;20223;-58
2022/08/05 07:45:21;;;;;;;3.05;2.10;;;;;;;27.20;43.88;98730.44;5032352;28;20659;-58
2022/08/05 07:47:48;;;;;;;2.50;1.95;;;;;;;26.87;44.50;98720.84;5033924;28;20297;-58
2022/08/05 07:50:15;;;;;;;2.13;1.92;;;;;;;26.92;46.65;98713.66;5035160;28;20224;-57
2022/08/05 07:52:43;;;;;;;1.95;1.73;;;;;;;26.74;46.38;98706.78;5031638;28;20194;-58
2022/08/05 07:55:10;;;;;;;2.20;2.00;;;;;;;26.80;47.61;98687.03;5032637;28;20281;-58
2022/08/05 07:57:38;;;;;;;3.25;2.05;;;;;;;26.61;46.88;98678.56;5034882;28;20701;-58
2022/08/05 08:00:07;;;;;;;2.65;2.08;;;;;;;26.60;47.00;98666.22;5033418;28;20215;-58
2022/08/05 08:02:38;;;;;;;2.83;2.03;;;;;;;26.60;45.83;98660.88;5034122;28;20244;-58
2022/08/05 08:05:05;;;;;;;4.13;2.15;;;;;;;26.83;47.07;98655.47;5029493;28;20692;-57
2022/08/05 08:07:33;;;;;;;4.78;2.17;;;;;;;27.11;46.61;98656.97;5029985;28;20633;-58
2022/08/05 08:09:59;;;;;;;3.65;2.00;;;;;;;27.36;47.00;98644.78;5035507;28;20322;-58
2022/08/05 08:12:26;;;;;;;2.00;1.80;;;;;;;27.48;45.29;98634.69;5029863;28;20193;-58
2022/08/05 08:14:55;;;;;;;4.63;2.65;;;;;;;27.60;44.87;98636.31;5031617;28;20214;-57
2022/08/05 08:17:22;;;;;;;4.07;2.00;;;;;;;27.64;44.25;98621.31;5031618;28;20210;-58
2022/08/05 08:19:48;;;;;;;2.25;2.05;;;;;;;27.84;43.36;98613.31;5034365;28;20253;-55
2022/08/05 08:22:15;;;;;;;10.30;2.72;;;;;;;27.88;44.92;98616.31;5033927;28;20259;-55
2022/08/05 08:24:42;;;;;;;3.67;2.05;;;;;;;27.90;43.55;98614.16;5034779;28;20191;-56
2022/08/05 08:27:09;;;;;;;2.75;2.00;;;;;;;28.01;43.44;98612.28;5033752;28;20269;-56
2022/08/05 08:29:35;;;;;;;8.13;2.55;;;;;;;27.97;42.29;98616.56;5029036;28;20214;-55
2022/08/05 08:32:04;;;;;;;3.97;2.35;;;;;;;27.96;41.33;98607.72;5033431;28;20208;-56
2022/08/05 08:34:31;;;;;;;7.65;1.95;;;;;;;28.01;40.91;98609.59;5028225;28;20221;-56
2022/08/05 08:36:57;;;;;;;3.85;1.92;;;;;;;28.14;40.52;98614.47;5028168;28;20202;-56
2022/08/05 08:39:24;;;;;;;2.55;1.73;;;;;;;27.90;40.04;98599.94;5028853;28;20215;-57
2022/08/05 08:41:53;;;;;;;2.35;1.88;;;;;;;28.01;40.18;98592.72;5030272;28;20221;-56
2022/08/05 08:44:21;;;;;;;3.60;1.98;;;;;;;28.09;40.79;98590.28;5031696;28;20851;-56
2022/08/05 08:46:48;;;;;;;5.30;1.95;;;;;;;28.13;40.75;98574.47;5031894;28;20220;-56
2022/08/05 08:49:19;;;;;;;4.90;1.80;;;;;;;28.14;40.02;98576.09;5032619;28;20289;-57
2022/08/05 08:51:48;;;;;;;2.10;1.60;;;;;;;28.32;40.05;98574.78;5032586;28;20208;-57
2022/08/05 08:54:16;;;;;;;2.85;1.58;;;;;;;28.26;39.48;98575.84;5028769;28;20195;-57
2022/08/05 08:56:43;;;;;;;1.85;1.50;;;;;;;28.24;39.05;98576.09;5037786;28;20248;-56
2022/08/05 08:59:11;;;;;;;4.47;1.63;;;;;;;28.39;39.61;98582.53;5033512;28;20262;-56
2022/08/05 09:01:38;;;;;;;1.85;1.55;;;;;;;28.39;38.33;98579.84;5030917;28;20908;-57
2022/08/05 09:04:05;;;;;;;1.88;1.60;;;;;;;28.45;38.53;98576.09;5033324;28;20227;-57
2022/08/05 09:06:33;;;;;;;2.50;1.50;;;;;;;28.49;38.46;98587.09;5030429;28;20306;-57
2022/08/05 09:09:01;;;;;;;2.22;1.58;;;;;;;28.51;38.53;98595.69;5028851;28;20207;-57
2022/08/05 09:11:29;;;;;;;1.60;1.50;;;;;;;28.32;38.85;98604.28;5028366;28;20647;-57
2022/08/05 09:13:56;;;;;;;1.73;1.38;;;;;;;28.42;38.96;98604.28;5031902;28;20206;-57
2022/08/05 09:16:23;;;;;;;2.40;1.75;;;;;;;28.38;39.44;98608.59;5029932;28;20191;-57
2022/08/05 09:18:49;;;;;;;2.05;1.77;;;;;;;28.34;39.20;98622.81;5033026;28;20227;-57
2022/08/05 09:21:16;;;;;;;2.08;1.60;;;;;;;28.54;39.53;98616.63;5031322;28;20198;-57
2022/08/05 09:23:45;;;;;;;2.25;1.67;;;;;;;28.65;39.07;98628.16;5027054;28;20199;-57
2022/08/05 09:26:16;;;;;;;2.58;1.70;;;;;;;28.49;39.58;98638.13;5025979;28;20656;-56
2022/08/05 09:28:43;;;;;;;2.63;1.85;;;;;;;28.61;39.63;98629.78;5032445;28;20293;-54
2022/08/05 09:31:11;;;;;;;5.55;1.83;;;;;;;28.76;39.67;98628.94;5030565;28;20219;-55
2022/08/05 09:33:48;;;;;;;2.95;2.13;;;;;;;28.71;39.88;98627.88;5009613;28;20200;-52
2022/08/05 09:36:14;;;;;;;3.60;2.20;;;;;;;28.71;39.35;98630.56;5019164;28;20206;-54
2022/08/05 09:38:56;;;;;;;2.97;2.00;;;;;;;28.86;39.23;98631.66;5021131;28;20222;-52
2022/08/05 09:41:23;;;;;;;3.05;2.10;;;;;;;28.89;38.90;98635.69;5025781;28;20207;-54
2022/08/05 09:43:49;;;;;;;2.35;1.83;;;;;;;29.00;37.42;98627.31;5024035;28;20202;-55
2022/08/05 09:46:27;;;;;;;4.95;2.15;;;;;;;28.92;38.46;98611.75;5027432;28;20235;-54
2022/08/05 09:48:55;;;;;;;2.55;1.98;;;;;;;29.13;38.93;98617.91;5028021;28;20707;-55
2022/08/05 09:51:32;;;;;;;2.20;1.80;;;;;;;29.35;38.58;98616.72;5027309;28;20203;-55
2022/08/05 09:54:03;;;;;;;1.95;1.80;;;;;;;29.58;38.59;98619.88;5026280;28;20548;-56
2022/08/05 09:56:33;;;;;;;2.80;1.90;;;;;;;29.71;36.58;98621.13;5024141;28;20324;-54
2022/08/05 09:59:01;;;;;;;2.28;1.58;;;;;;;29.60;36.88;98618.53;5026850;28;20216;-54
2022/08/05 10:01:32;;;;;;;3.22;2.25;;;;;;;29.55;36.11;98628.50;5026939;28;20230;-54
2022/08/05 10:04:03;;;;;;;2.88;1.80;;;;;;;29.26;36.75;98621.88;5033247;28;20215;-54
2022/08/05 10:06:31;;;;;;;4.18;2.10;;;;;;;29.30;37.78;98617.56;5025746;28;20187;-58
2022/08/05 10:09:10;;;;;;;3.53;2.17;;;;;;;29.36;37.81;98612.94;5025628;28;20766;-55
2022/08/05 10:11:37;;;;;;;3.13;1.95;;;;;;;29.26;37.25;98611.13;5028674;28;20195;-53
2022/08/05 10:14:20;;;;;;;2.80;1.83;;;;;;;29.08;37.56;98609.03;5026480;28;20196;-55
2022/08/05 10:16:47;;;;;;;3.85;2.05;;;;;;;29.33;37.73;98615.41;5020683;28;20215;-55
2022/08/05 10:19:15;;;;;;;2.22;1.63;;;;;;;29.38;37.27;98618.09;5024252;28;20220;-55
2022/08/05 10:21:42;;;;;;;2.42;1.80;;;;;;;29.50;36.68;98620.44;5024704;28;20584;-53
2022/08/05 10:24:12;;;;;;;2.10;1.90;;;;;;;29.46;36.43;98620.22;5024897;28;20237;-56
2022/08/05 10:26:39;;;;;;;4.35;2.03;;;;;;;29.18;37.65;98619.75;5007104;28;20231;-55
2022/08/05 10:29:07;;;;;;;3.13;1.85;;;;;;;29.38;37.97;98623.47;5028933;28;20239;-56
2022/08/05 10:31:34;;;;;;;3.65;2.25;;;;;;;29.53;37.35;98626.09;5022742;28;20257;-55
2022/08/05 10:34:02;;;;;;;2.10;1.90;;;;;;;29.71;36.65;98627.34;5020856;28;20207;-56
2022/08/05 10:36:29;;;;;;;4.72;1.98;;;;;;;29.80;36.78;98621.38;5021864;28;20250;-56
2022/08/05 10:39:01;;;;;;;3.40;2.00;;;;;;;29.78;36.60;98637.00;5023474;28;20281;-55
2022/08/05 10:41:35;;;;;;;6.68;2.50;;;;;;;29.92;37.02;98623.72;5025364;28;20297;-55
2022/08/05 10:44:06;;;;;;;3.17;2.38;;;;;;;29.87;36.18;98624.56;5023623;28;20226;-55
2022/08/05 10:46:44;;;;;;;2.97;2.25;;;;;;;29.85;37.21;98627.53;5024011;28;20239;-56
2022/08/05 10:52:55;;;;;;;2.30;1.67;;;;;;;30.16;37.17;98616.59;5018557;28;20226;-53
2022/08/05 10:56:18;;;;;;;2.50;2.15;;;;;;;30.33;37.02;98620.75;5028527;28;20230;-54
2022/08/05 10:59:41;;;;;;;4.70;1.80;;;;;;;30.00;38.19;98623.16;5027106;28;20277;-56
2022/08/05 11:03:04;;;;;;;4.63;2.20;;;;;;;29.92;38.33;98624.53;5015975;28;20339;-55
2022/08/05 11:06:27;;;;;;;3.88;2.20;;;;;;;30.36;37.52;98625.59;5021751;28;20315;-55
2022/08/05 11:09:50;;;;;;;4.80;2.40;;;;;;;30.56;37.19;98621.13;5028466;28;20226;-55
2022/08/05 11:12:45;;;;;;;4.05;2.13;;;;;;;30.58;37.12;98621.66;5028456;28;20257;-55
2022/08/05 11:15:24;;;;;;;2.42;2.10;;;;;;;30.62;37.36;98626.19;5030540;28;20560;-56
2022/08/05 11:17:52;;;;;;;4.40;2.10;;;;;;;30.09;37.46;98624.16;5030168;28;20219;-54
2022/08/05 11:20:36;;;;;;;5.38;2.20;;;;;;;30.40;37.41;98623.13;5027562;28;20223;-55
2022/08/05 11:23:27;;;;;;;5.75;2.10;;;;;;;30.72;37.32;98619.09;5028395;28;20298;-56
2022/08/05 11:26:05;;;;;;;2.20;1.90;;;;;;;30.88;36.29;98625.13;5029807;28;20234;-56
2022/08/05 11:28:45;;;;;;;4.05;2.22;;;;;;;30.57;37.01;98622.72;5010576;28;20219;-57
2022/08/05 11:31:33;;;;;;;3.35;2.08;;;;;;;30.97;35.53;98634.19;5025343;28;20224;-56
2022/08/05 11:34:07;;;;;;;7.47;2.40;;;;;;;30.90;36.34;98637.25;5027055;28;20219;-60
2022/08/05 11:36:49;;;;;;;3.17;2.13;;;;;;;30.59;37.08;98640.22;5027579;28;20245;-55
2022/08/05 11:39:39;;;;;;;2.17;1.92;;;;;;;30.96;35.96;98632.59;5026481;28;20275;-55
2022/08/05 11:42:07;;;;;;;2.53;1.95;;;;;;;30.78;35.23;98634.13;5027118;28;20567;-59
2022/08/05 11:44:39;;;;;;;3.20;2.05;;;;;;;30.81;35.71;98633.56;5029037;28;20228;-55
2022/08/05 11:47:06;;;;;;;5.85;2.08;;;;;;;30.81;35.89;98627.34;5029537;28;20251;-55
2022/08/05 11:49:33;;;;;;;4.50;1.98;;;;;;;30.74;35.78;98625.78;5026189;28;20266;-53
2022/08/05 11:52:00;;;;;;;3.30;1.83;;;;;;;30.78;34.80;98629.53;5028979;28;20231;-56
2022/08/05 11:54:28;;;;;;;2.60;1.83;;;;;;;31.02;34.29;98627.97;5011448;28;20283;-52
2022/08/05 11:56:56;;;;;;;2.92;1.85;;;;;;;31.07;34.62;98623.31;5029067;28;20230;-55